createdAt,value
2018-11-13T00:02:13.057Z,99.90
2018-11-13T00:04:45.759Z,99.90
2018-11-13T00:07:19.791Z,99.90
2018-11-13T00:09:52.284Z,99.90
2018-11-13T00:12:24.984Z,99.90
2018-11-13T00:14:57.486Z,99.90
2018-11-13T00:17:30.246Z,99.90
2018-11-13T00:20:02.881Z,99.90
2018-11-13T00:22:35.512Z,99.90
2018-11-13T00:25:08.773Z,99.90
2018-11-13T00:27:41.885Z,99.90
2018-11-13T00:30:17.814Z,99.90
2018-11-13T00:32:50.418Z,99.90
2018-11-13T00:35:23.659Z,99.90
2018-11-13T00:37:56.600Z,99.90
2018-11-13T00:40:27.503Z,99.90
2018-11-13T00:42:58.279Z,99.90
2018-11-13T00:45:30.811Z,99.90
2018-11-13T00:48:03.400Z,99.90
2018-11-13T00:50:35.965Z,99.90
2018-11-13T00:53:10.530Z,99.90
2018-11-13T00:55:41.647Z,99.90
2018-11-13T00:58:14.282Z,99.90
2018-11-13T01:00:47.245Z,99.90
2018-11-13T01:03:23.736Z,99.90
2018-11-13T01:05:56.379Z,99.90
2018-11-13T01:08:29.127Z,99.90
2018-11-13T01:11:01.644Z,99.90
2018-11-13T01:13:34.472Z,99.90
2018-11-13T01:16:07.007Z,99.90
2018-11-13T01:18:40.309Z,99.90
2018-11-13T01:21:12.795Z,99.90
2018-11-13T01:23:45.323Z,99.90
2018-11-13T01:26:18.177Z,99.90
2018-11-13T01:28:49.713Z,99.90
2018-11-13T01:31:20.719Z,99.90
2018-11-13T01:33:52.020Z,99.90
2018-11-13T01:36:24.146Z,99.90
2018-11-13T01:38:54.932Z,99.90
2018-11-13T01:41:25.837Z,99.90
2018-11-13T01:43:56.651Z,99.90
2018-11-13T01:46:28.411Z,99.90
2018-11-13T01:48:59.202Z,99.90
2018-11-13T01:51:29.980Z,99.90
2018-11-13T01:54:06.909Z,99.90
2018-11-13T01:56:37.885Z,99.90
2018-11-13T01:59:08.673Z,99.90
2018-11-13T02:01:41.240Z,99.90
2018-11-13T02:04:13.791Z,99.90
2018-11-13T02:06:46.833Z,99.90
2018-11-13T02:09:19.394Z,99.90
2018-11-13T02:11:51.952Z,99.90
2018-11-13T02:14:24.713Z,99.90
2018-11-13T02:16:58.301Z,99.90
2018-11-13T02:19:30.857Z,99.90
2018-11-13T02:22:03.378Z,99.90
2018-11-13T02:24:36.327Z,99.90
2018-11-13T02:27:09.001Z,99.90
2018-11-13T02:29:42.007Z,99.90
2018-11-13T02:32:14.653Z,99.90
2018-11-13T02:34:47.625Z,99.90
2018-11-13T02:37:20.179Z,99.90
2018-11-13T02:39:53.318Z,99.90
2018-11-13T02:42:25.934Z,99.90
2018-11-13T02:47:46.388Z,99.90
2018-11-13T02:50:24.219Z,99.90
2018-11-13T02:52:56.802Z,99.90
2018-11-13T02:55:30.063Z,99.90
2018-11-13T02:58:02.632Z,99.90
2018-11-13T03:00:35.569Z,99.90
2018-11-13T03:03:08.349Z,99.90
2018-11-13T03:05:40.971Z,99.90
2018-11-13T03:08:13.486Z,99.90
2018-11-13T03:10:46.123Z,99.90
2018-11-13T03:13:19.602Z,99.90
2018-11-13T03:15:50.384Z,99.90
2018-11-13T03:18:21.168Z,99.90
2018-11-13T03:20:51.947Z,99.90
2018-11-13T03:23:22.720Z,99.90
2018-11-13T03:25:53.520Z,99.90
2018-11-13T03:28:24.301Z,99.90
2018-11-13T03:30:55.143Z,99.90
2018-11-13T03:33:25.918Z,99.90
2018-11-13T03:35:59.998Z,99.90
2018-11-13T03:38:30.793Z,99.90
2018-11-13T03:41:01.580Z,99.90
2018-11-13T03:43:32.780Z,99.90
2018-11-13T03:46:03.930Z,99.90
2018-11-13T03:48:35.101Z,99.90
2018-11-13T03:51:05.892Z,99.90
2018-11-13T03:53:36.661Z,99.90
2018-11-13T03:56:07.640Z,99.90
2018-11-13T03:58:38.614Z,99.90
2018-11-13T04:01:09.735Z,99.90
2018-11-13T04:03:40.560Z,99.90
2018-11-13T04:06:12.300Z,99.90
2018-11-13T04:08:44.805Z,99.90
2018-11-13T04:11:17.336Z,99.90
2018-11-13T04:13:49.895Z,99.90
2018-11-13T04:16:22.476Z,99.90
2018-11-13T04:18:54.973Z,99.90
2018-11-13T04:21:28.060Z,99.90
2018-11-13T04:24:00.619Z,99.90
2018-11-13T04:26:33.530Z,99.90
2018-11-13T04:29:06.076Z,99.90
2018-11-13T04:31:38.593Z,99.90
2018-11-13T04:34:11.269Z,99.90
2018-11-13T04:36:42.062Z,99.90
2018-11-13T04:39:13.728Z,99.90
2018-11-13T04:41:45.480Z,99.90
2018-11-13T04:44:16.294Z,99.90
2018-11-13T04:46:47.046Z,99.90
2018-11-13T04:49:17.878Z,99.90
2018-11-13T04:51:50.448Z,99.90
2018-11-13T04:54:23.053Z,99.90
2018-11-13T04:56:53.830Z,99.90
2018-11-13T04:59:24.620Z,99.90
2018-11-13T05:01:57.161Z,99.90
2018-11-13T05:04:29.659Z,99.90
2018-11-13T05:07:02.180Z,99.90
2018-11-13T05:09:34.684Z,99.90
2018-11-13T05:12:07.457Z,99.90
2018-11-13T05:14:39.988Z,99.90
2018-11-13T05:17:12.535Z,99.90
2018-11-13T05:19:45.035Z,99.90
2018-11-13T05:22:17.828Z,99.90
2018-11-13T05:24:50.663Z,99.90
2018-11-13T05:27:23.500Z,99.90
2018-11-13T05:29:55.992Z,99.90
2018-11-13T05:32:28.852Z,99.90
2018-11-13T05:35:02.017Z,99.90
2018-11-13T05:37:34.650Z,99.90
2018-11-13T05:40:08.288Z,99.90
2018-11-13T05:42:41.111Z,99.90
2018-11-13T05:45:15.594Z,99.90
2018-11-13T05:47:48.273Z,99.90
2018-11-13T05:50:21.320Z,99.90
2018-11-13T05:52:55.049Z,99.90
2018-11-13T05:55:27.569Z,99.90
2018-11-13T05:58:00.053Z,99.90
2018-11-13T06:00:34.802Z,99.90
2018-11-13T06:03:07.352Z,99.90
2018-11-13T06:05:40.677Z,99.90
2018-11-13T06:08:13.520Z,99.90
2018-11-13T06:10:46.680Z,99.90
2018-11-13T06:13:19.191Z,99.90
2018-11-13T06:15:49.970Z,99.90
2018-11-13T06:18:22.597Z,99.90
2018-11-13T06:24:14.035Z,99.90
2018-11-13T06:29:53.619Z,99.90
2018-11-13T06:32:24.499Z,99.90
2018-11-13T06:34:57.195Z,99.90
2018-11-13T06:37:28.130Z,99.90
2018-11-13T06:39:58.974Z,99.90
2018-11-13T06:42:29.823Z,99.90
2018-11-13T06:45:00.713Z,99.90
2018-11-13T06:47:33.373Z,99.90
2018-11-13T06:50:06.223Z,99.90
2018-11-13T06:52:37.074Z,99.90
2018-11-13T06:55:13.372Z,99.90
2018-11-13T06:57:44.407Z,99.90
2018-11-13T07:00:17.354Z,99.90
2018-11-13T07:02:48.285Z,99.90
2018-11-13T07:05:20.094Z,99.90
2018-11-13T07:07:51.049Z,99.90
2018-11-13T07:10:25.206Z,99.90
2018-11-13T07:12:56.711Z,99.90
2018-11-13T07:15:28.880Z,99.90
2018-11-13T07:18:02.951Z,99.90
2018-11-13T07:20:35.156Z,99.90
2018-11-13T07:23:06.119Z,99.90
2018-11-13T07:25:38.895Z,99.90
2018-11-13T07:28:09.882Z,99.90
2018-11-13T07:30:40.831Z,99.90
2018-11-13T07:33:13.480Z,99.90
2018-11-13T07:35:46.221Z,99.90
2018-11-13T07:38:18.975Z,99.90
2018-11-13T07:40:49.914Z,99.90
2018-11-13T07:43:22.580Z,99.90
2018-11-13T07:45:55.387Z,99.90
2018-11-13T07:48:26.289Z,99.90
2018-11-13T07:50:57.241Z,99.90
2018-11-13T07:53:28.201Z,99.90
2018-11-13T07:55:59.100Z,99.90
2018-11-13T07:58:30.072Z,99.90
2018-11-13T08:01:01.024Z,99.90
2018-11-13T08:03:33.956Z,99.90
2018-11-13T08:06:06.075Z,99.90
2018-11-13T08:08:37.039Z,99.90
2018-11-13T08:11:07.970Z,99.90
2018-11-13T08:13:40.679Z,99.90
2018-11-13T08:16:11.670Z,99.90
2018-11-13T08:18:42.607Z,99.90
2018-11-13T08:21:15.462Z,99.90
2018-11-13T08:23:46.378Z,99.90
2018-11-13T08:26:17.888Z,99.90
2018-11-13T08:28:48.857Z,99.90
2018-11-13T08:31:19.888Z,99.90
2018-11-13T08:33:50.881Z,99.90
2018-11-13T08:36:21.744Z,99.90
2018-11-13T08:38:52.590Z,99.90
2018-11-13T08:41:23.428Z,99.90
2018-11-13T08:43:56.254Z,99.90
2018-11-13T08:46:29.274Z,99.90
2018-11-13T08:49:00.145Z,99.90
2018-11-13T08:51:32.822Z,99.90
2018-11-13T08:54:05.553Z,99.90
2018-11-13T08:57:10.821Z,99.90
2018-11-13T08:59:43.498Z,99.90
2018-11-13T09:02:14.363Z,99.90
2018-11-13T09:04:46.753Z,99.90
2018-11-13T09:07:17.575Z,99.90
2018-11-13T09:09:48.247Z,99.90
2018-11-13T09:12:19.010Z,99.90
2018-11-13T09:14:49.843Z,99.90
2018-11-13T09:17:20.494Z,99.90
2018-11-13T09:19:51.359Z,99.90
2018-11-13T09:22:22.269Z,99.90
2018-11-13T09:24:54.775Z,99.90
2018-11-13T09:27:27.180Z,99.90
2018-11-13T09:29:57.962Z,99.90
2018-11-13T09:35:56.719Z,99.90
2018-11-13T09:38:28.816Z,99.90
2018-11-13T09:41:01.716Z,99.90
2018-11-13T09:43:33.763Z,99.90
2018-11-13T09:46:05.883Z,99.90
2018-11-13T09:48:38.081Z,99.90
2018-11-13T09:51:08.529Z,99.90
2018-11-13T09:53:38.940Z,99.90
2018-11-13T09:56:11.079Z,99.90
2018-11-13T09:58:43.267Z,99.90
2018-11-13T10:01:15.713Z,99.90
2018-11-13T10:03:46.603Z,99.90
2018-11-13T10:06:18.211Z,99.90
2018-11-13T10:12:09.746Z,99.90
2018-11-13T10:14:40.387Z,99.90
2018-11-13T10:17:11.845Z,99.90
2018-11-13T10:19:44.340Z,99.90
2018-11-13T10:22:15.133Z,99.90
2018-11-13T10:24:45.723Z,99.90
2018-11-13T10:27:16.675Z,99.90
2018-11-13T10:33:10.495Z,99.90
2018-11-13T10:35:43.275Z,99.90
2018-11-13T10:38:14.178Z,99.90
2018-11-13T10:40:45.081Z,99.90
2018-11-13T10:43:16.086Z,99.90
2018-11-13T10:45:48.796Z,99.90
2018-11-13T10:48:21.485Z,99.90
2018-11-13T10:51:27.293Z,99.90
2018-11-13T10:53:59.887Z,99.90
2018-11-13T10:56:30.514Z,99.90
2018-11-13T10:59:01.205Z,99.90
2018-11-13T11:01:36.192Z,99.90
2018-11-13T11:04:11.477Z,99.90
2018-11-13T11:06:42.073Z,99.90
2018-11-13T11:09:12.699Z,99.90
2018-11-13T11:11:44.284Z,99.90
2018-11-13T11:14:16.834Z,99.90
2018-11-13T11:20:15.853Z,99.90
2018-11-13T11:22:46.744Z,99.90
2018-11-13T11:25:17.614Z,99.90
2018-11-13T11:27:48.471Z,99.90
2018-11-13T11:30:19.308Z,99.90
2018-11-13T11:32:50.055Z,99.90
2018-11-13T11:35:20.945Z,99.90
2018-11-13T11:37:51.683Z,99.90
2018-11-13T11:40:24.164Z,99.90
2018-11-13T11:42:56.572Z,99.90
2018-11-13T11:45:30.003Z,99.90
2018-11-13T11:48:03.850Z,99.90
2018-11-13T11:50:36.374Z,99.90
2018-11-13T11:53:09.050Z,99.90
2018-11-13T11:56:09.835Z,99.90
2018-11-13T11:58:42.391Z,99.90
2018-11-13T12:01:15.688Z,99.90
2018-11-13T12:07:09.948Z,99.90
2018-11-13T12:09:42.933Z,99.90
2018-11-13T12:12:15.904Z,99.90
2018-11-13T12:14:48.857Z,99.90
2018-11-13T12:17:53.756Z,99.90
2018-11-13T12:20:26.054Z,99.90
2018-11-13T12:22:58.349Z,99.90
2018-11-13T12:25:29.002Z,99.90
2018-11-13T12:27:59.524Z,99.90
2018-11-13T12:30:31.862Z,99.90
2018-11-13T12:33:02.530Z,99.90
2018-11-13T12:35:33.055Z,99.90
2018-11-13T12:38:03.665Z,99.90
2018-11-13T12:40:36.141Z,99.90
2018-11-13T12:43:06.812Z,99.90
2018-11-13T12:45:37.352Z,99.90
2018-11-13T12:48:08.208Z,99.90
2018-11-13T12:50:43.320Z,99.90
2018-11-13T12:53:13.873Z,99.90
2018-11-13T12:55:44.607Z,99.90
2018-11-13T12:58:15.334Z,99.90
2018-11-13T13:00:46.323Z,99.90
2018-11-13T13:03:16.877Z,99.90
2018-11-13T13:05:47.537Z,99.90
2018-11-13T13:08:18.097Z,99.90
2018-11-13T13:10:48.713Z,99.90
2018-11-13T13:13:19.251Z,99.90
2018-11-13T13:15:49.931Z,99.90
2018-11-13T13:18:20.584Z,99.90
2018-11-13T13:20:51.217Z,99.90
2018-11-13T13:23:21.765Z,99.90
2018-11-13T13:25:52.484Z,99.90
2018-11-13T13:28:24.040Z,99.90
2018-11-13T13:30:54.681Z,99.90
2018-11-13T13:33:25.530Z,99.90
2018-11-13T13:36:03.479Z,99.90
2018-11-13T13:38:39.399Z,99.90
2018-11-13T13:41:10.015Z,99.90
2018-11-13T13:43:40.638Z,99.90
2018-11-13T13:46:11.173Z,99.90
2018-11-13T13:51:50.240Z,99.90
2018-11-13T13:54:21.075Z,99.90
2018-11-13T13:56:51.790Z,99.90
2018-11-13T13:59:22.634Z,99.90
2018-11-13T14:01:53.267Z,99.90
2018-11-13T14:04:23.884Z,99.90
2018-11-13T14:06:54.555Z,99.90
2018-11-13T14:09:25.295Z,99.90
2018-11-13T14:15:02.528Z,99.90
2018-11-13T14:17:32.948Z,99.90
2018-11-13T14:20:03.388Z,99.90
2018-11-13T14:22:36.022Z,99.90
2018-11-13T14:25:06.478Z,99.90
2018-11-13T14:27:40.931Z,99.90
2018-11-13T14:30:18.245Z,99.90
2018-11-13T14:32:56.410Z,99.90
2018-11-13T14:35:29.697Z,99.90
2018-11-13T14:38:00.766Z,99.90
2018-11-13T14:40:33.717Z,99.90
2018-11-13T14:43:05.465Z,99.90
2018-11-13T14:45:36.968Z,99.90
2018-11-13T14:48:08.146Z,99.90
2018-11-13T14:50:39.113Z,99.90
2018-11-13T14:53:09.994Z,99.90
2018-11-13T14:55:41.867Z,99.90
2018-11-13T14:58:13.492Z,99.90
2018-11-13T15:00:44.363Z,99.90
2018-11-13T15:03:17.027Z,99.90
2018-11-13T15:05:47.468Z,99.90
2018-11-13T15:08:17.907Z,99.90
2018-11-13T15:10:52.773Z,99.90
2018-11-13T15:13:31.474Z,99.90
2018-11-13T15:16:02.738Z,99.90
2018-11-13T15:18:35.544Z,99.90
2018-11-13T15:21:08.080Z,99.90
2018-11-13T15:23:38.519Z,99.90
2018-11-13T15:26:09.614Z,99.90
2018-11-13T15:28:39.998Z,99.90
2018-11-13T15:31:11.572Z,99.90
2018-11-13T15:33:42.119Z,99.90
2018-11-13T15:36:12.580Z,99.90
2018-11-13T15:38:43.312Z,99.90
2018-11-13T15:41:15.835Z,99.90
2018-11-13T15:43:46.225Z,99.90
2018-11-13T15:46:17.110Z,99.90
2018-11-13T15:48:48.051Z,98.20
2018-11-13T15:51:23.809Z,98.00
2018-11-13T15:53:55.998Z,98.60
2018-11-13T15:56:29.373Z,98.40
2018-11-13T15:59:03.290Z,96.00
2018-11-13T16:01:33.707Z,96.80
2018-11-13T16:04:06.105Z,96.20
2018-11-13T16:06:36.531Z,99.30
2018-11-13T16:09:09.542Z,99.00
2018-11-13T16:11:50.712Z,96.00
2018-11-13T16:14:21.978Z,98.40
2018-11-13T16:16:52.972Z,96.20
2018-11-13T16:19:23.426Z,95.50
2018-11-13T16:21:54.056Z,97.60
2018-11-13T16:24:24.461Z,99.90
2018-11-13T16:26:54.907Z,99.90
2018-11-13T16:29:34.266Z,99.90
2018-11-13T16:32:11.195Z,99.90
2018-11-13T16:34:41.772Z,98.00
2018-11-13T16:37:20.657Z,99.90
2018-11-13T16:39:53.198Z,99.90
2018-11-13T16:42:31.428Z,96.40
2018-11-13T16:45:02.950Z,95.30
2018-11-13T16:47:34.602Z,99.00
2018-11-13T16:50:05.073Z,97.30
2018-11-13T16:52:36.811Z,94.10
2018-11-13T16:55:08.050Z,92.50
2018-11-13T16:57:38.466Z,90.20
2018-11-13T17:00:11.214Z,91.60
2018-11-13T17:02:41.755Z,91.10
2018-11-13T17:05:16.262Z,90.20
2018-11-13T17:07:50.910Z,84.90
2018-11-13T17:10:30.893Z,83.20
2018-11-13T17:13:06.212Z,80.00
2018-11-13T17:15:38.355Z,79.10
2018-11-13T17:18:09.068Z,74.60
2018-11-13T17:20:39.561Z,74.40
2018-11-13T17:23:10.021Z,73.90
2018-11-13T17:25:42.508Z,71.80
2018-11-13T17:28:13.184Z,72.40
2018-11-13T17:30:45.934Z,72.40
2018-11-13T17:33:16.366Z,74.20
2018-11-13T17:35:46.804Z,75.00
2018-11-13T17:38:17.269Z,71.60
2018-11-13T17:40:48.243Z,73.50
2018-11-13T17:43:18.678Z,72.90
2018-11-13T17:45:49.064Z,72.60
2018-11-13T17:48:20.559Z,75.20
2018-11-13T17:50:52.697Z,72.50
2018-11-13T17:53:23.460Z,71.90
2018-11-13T17:55:53.900Z,72.00
2018-11-13T17:58:27.472Z,68.80
2018-11-13T18:00:57.992Z,70.40
2018-11-13T18:03:28.418Z,74.50
2018-11-13T18:06:00.578Z,73.00
2018-11-13T18:12:05.427Z,79.40
2018-11-13T18:14:38.426Z,80.60
2018-11-13T18:17:09.718Z,74.90
2018-11-13T18:19:41.604Z,73.70
2018-11-13T18:22:16.967Z,72.50
2018-11-13T18:24:50.499Z,73.80
2018-11-13T18:27:23.124Z,71.10
2018-11-13T18:30:00.596Z,74.00
2018-11-13T18:32:38.544Z,75.10
2018-11-13T18:35:20.310Z,73.20
2018-11-13T18:37:59.315Z,71.00
2018-11-13T18:40:35.456Z,71.50
2018-11-13T18:43:14.400Z,74.10
2018-11-13T18:45:48.079Z,73.50
2018-11-13T18:48:23.448Z,73.80
2018-11-13T18:50:59.830Z,72.40
2018-11-13T18:53:32.668Z,73.90
2018-11-13T18:56:08.343Z,70.90
2018-11-13T18:59:04.577Z,66.30
2018-11-13T19:01:51.970Z,65.30
2018-11-13T19:04:45.689Z,67.40
2018-11-13T19:07:21.407Z,69.60
2018-11-13T19:09:56.821Z,67.20
2018-11-13T19:12:44.031Z,67.50
2018-11-13T19:15:19.155Z,64.80
2018-11-13T19:17:55.243Z,66.00
2018-11-13T19:20:33.496Z,67.00
2018-11-13T19:23:12.856Z,67.50
2018-11-13T19:25:53.169Z,63.70
2018-11-13T19:28:37.001Z,65.40
2018-11-13T19:34:05.991Z,61.30
2018-11-13T19:36:44.243Z,60.90
2018-11-13T19:39:23.714Z,61.30
2018-11-13T19:42:05.016Z,63.30
2018-11-13T19:44:41.893Z,65.90
2018-11-13T19:47:16.571Z,66.70
2018-11-13T19:49:49.589Z,67.40
2018-11-13T19:52:22.522Z,66.80
2018-11-13T19:54:55.278Z,64.80
2018-11-13T19:57:30.028Z,66.50
2018-11-13T20:00:02.874Z,66.00
2018-11-13T20:02:37.755Z,66.20
2018-11-13T20:05:12.830Z,65.30
2018-11-13T20:07:46.698Z,64.00
2018-11-13T20:10:21.821Z,66.90
2018-11-13T20:12:55.966Z,68.00
2018-11-13T20:15:29.562Z,67.60
2018-11-13T20:18:02.357Z,66.50
2018-11-13T20:20:35.662Z,67.40
2018-11-13T20:23:09.427Z,69.10
2018-11-13T20:25:42.225Z,68.40
2018-11-13T20:28:15.207Z,65.90
2018-11-13T20:30:48.366Z,64.10
2018-11-13T20:33:21.356Z,64.60
2018-11-13T20:35:54.011Z,65.10
2018-11-13T20:38:26.641Z,64.20
2018-11-13T20:40:59.328Z,64.80
2018-11-13T20:43:31.971Z,64.90
2018-11-13T20:46:04.908Z,67.60
2018-11-13T20:48:37.487Z,69.70
2018-11-13T20:51:10.039Z,70.70
2018-11-13T20:53:42.748Z,70.00
2018-11-13T20:56:19.641Z,70.20
2018-11-13T20:58:52.238Z,69.80
2018-11-13T21:01:24.779Z,69.30
2018-11-13T21:07:29.223Z,63.90
2018-11-13T21:10:01.695Z,63.90
2018-11-13T21:12:40.159Z,66.50
2018-11-13T21:15:15.284Z,66.90
2018-11-13T21:17:47.945Z,66.50
2018-11-13T21:20:21.421Z,68.60
2018-11-13T21:22:53.927Z,68.60
2018-11-13T21:25:27.183Z,71.70
2018-11-13T21:28:04.184Z,73.50
2018-11-13T21:30:36.679Z,75.80
2018-11-13T21:33:09.547Z,76.40
2018-11-13T21:35:42.363Z,76.70
2018-11-13T21:38:15.045Z,76.40
2018-11-13T21:40:47.570Z,75.80
2018-11-13T21:43:25.177Z,78.90
2018-11-13T21:45:58.049Z,77.40
2018-11-13T21:48:30.514Z,80.40
2018-11-13T21:51:02.997Z,81.40
2018-11-13T21:53:33.633Z,81.50
2018-11-13T21:56:05.202Z,86.10
2018-11-13T21:58:35.901Z,89.10
2018-11-13T22:01:06.789Z,89.50
2018-11-13T22:03:37.492Z,92.10
2018-11-13T22:06:08.211Z,92.50
2018-11-13T22:08:39.013Z,93.40
2018-11-13T22:11:09.732Z,96.70
2018-11-13T22:13:43.106Z,99.90
2018-11-13T22:16:21.161Z,99.90
2018-11-13T22:18:51.854Z,99.90
2018-11-13T22:24:41.430Z,99.90
2018-11-13T22:27:14.318Z,99.90
2018-11-13T22:29:47.998Z,99.90
2018-11-13T22:32:20.850Z,99.90
2018-11-13T22:34:53.890Z,99.90
2018-11-13T22:37:26.578Z,99.90
2018-11-13T22:39:59.251Z,99.90
2018-11-13T22:42:32.024Z,99.90
2018-11-13T22:48:25.839Z,99.90
2018-11-13T22:50:59.301Z,99.90
2018-11-13T22:53:31.655Z,99.90
2018-11-13T22:56:06.133Z,99.90
2018-11-13T22:58:38.441Z,99.90
2018-11-13T23:01:11.954Z,99.90
2018-11-13T23:03:44.613Z,99.90
2018-11-13T23:06:18.278Z,99.90
2018-11-13T23:08:50.941Z,99.90
2018-11-13T23:11:26.462Z,99.90
2018-11-13T23:14:04.342Z,99.90
2018-11-13T23:16:41.499Z,99.90
2018-11-13T23:19:15.352Z,99.90
2018-11-13T23:21:49.529Z,99.90
2018-11-13T23:24:24.477Z,99.90
2018-11-13T23:26:59.719Z,99.90
2018-11-13T23:32:07.611Z,99.90
2018-11-13T23:34:38.941Z,99.90
2018-11-13T23:37:09.585Z,99.90
2018-11-13T23:39:40.387Z,99.90
2018-11-13T23:42:11.204Z,99.90
2018-11-13T23:44:41.874Z,99.90
2018-11-13T23:47:13.803Z,99.90
2018-11-13T23:49:45.319Z,99.90
2018-11-13T23:52:16.266Z,99.90
2018-11-13T23:54:48.030Z,99.90
2018-11-13T23:57:18.854Z,99.90
2018-11-13T23:59:50.501Z,99.90
